createdAt,value
2022-11-24T00:00:52.021Z,13.90
2022-11-24T00:03:19.727Z,14.57
2022-11-24T00:05:48.917Z,12.90
2022-11-24T00:08:16.476Z,13.60
2022-11-24T00:10:44.034Z,14.07
2022-11-24T00:13:11.784Z,15.07
2022-11-24T00:15:39.348Z,16.10
2022-11-24T00:18:06.992Z,17.67
2022-11-24T00:20:34.554Z,17.43
2022-11-24T00:23:03.534Z,15.80
2022-11-24T00:25:31.096Z,16.93
2022-11-24T00:28:04.370Z,16.97
2022-11-24T00:30:31.966Z,19.07
2022-11-24T00:32:59.756Z,18.57
2022-11-24T00:35:27.300Z,17.37
2022-11-24T00:37:56.462Z,16.50
2022-11-24T00:40:25.418Z,18.07
2022-11-24T00:42:52.994Z,21.40
2022-11-24T00:45:20.566Z,20.30
2022-11-24T00:47:48.155Z,18.80
2022-11-24T00:50:16.199Z,19.53
2022-11-24T00:52:43.779Z,17.93
2022-11-24T00:55:11.338Z,16.83
2022-11-24T00:57:40.264Z,16.97
2022-11-24T01:00:09.434Z,18.87
2022-11-24T01:02:37.060Z,17.03
2022-11-24T01:05:04.996Z,20.37
2022-11-24T01:07:32.738Z,17.80
2022-11-24T01:10:00.397Z,18.93
2022-11-24T01:12:28.403Z,17.27
2022-11-24T01:14:57.353Z,19.57
2022-11-24T01:17:24.910Z,20.33
2022-11-24T01:19:52.528Z,20.33
2022-11-24T01:22:20.158Z,20.07
2022-11-24T01:24:47.724Z,18.63
2022-11-24T01:27:15.280Z,18.03
2022-11-24T01:29:42.896Z,18.47
2022-11-24T01:32:11.888Z,21.83
2022-11-24T01:34:39.439Z,18.13
2022-11-24T01:37:07.052Z,20.37
2022-11-24T01:39:34.606Z,20.50
2022-11-24T01:42:02.246Z,18.17
2022-11-24T01:44:31.251Z,20.43
2022-11-24T01:47:00.241Z,20.27
2022-11-24T01:49:37.999Z,18.10
2022-11-24T01:52:08.460Z,19.37
2022-11-24T01:54:37.821Z,19.83
2022-11-24T01:57:11.529Z,20.70
2022-11-24T01:59:39.135Z,21.53
2022-11-24T02:02:06.785Z,19.63
2022-11-24T02:04:37.078Z,20.63
2022-11-24T02:07:06.904Z,20.43
2022-11-24T02:09:41.729Z,19.10
2022-11-24T02:12:09.702Z,18.17
2022-11-24T02:14:38.069Z,19.53
2022-11-24T02:17:05.723Z,17.63
2022-11-24T02:19:41.506Z,18.27
2022-11-24T02:22:13.880Z,16.53
2022-11-24T02:24:44.882Z,18.10
2022-11-24T02:27:13.924Z,17.17
2022-11-24T02:29:42.065Z,16.93
2022-11-24T02:32:10.811Z,18.17
2022-11-24T02:34:38.378Z,17.27
2022-11-24T02:37:06.163Z,17.13
2022-11-24T02:39:33.868Z,15.97
2022-11-24T02:42:03.861Z,16.90
2022-11-24T02:44:36.571Z,15.67
2022-11-24T02:47:06.132Z,15.27
2022-11-24T02:49:33.805Z,18.03
2022-11-24T02:52:01.685Z,17.37
2022-11-24T02:54:29.624Z,15.07
2022-11-24T02:56:57.392Z,14.83
2022-11-24T02:59:25.212Z,17.60
2022-11-24T03:01:54.295Z,15.93
2022-11-24T03:04:21.922Z,15.23
2022-11-24T03:06:49.646Z,14.80
2022-11-24T03:09:17.316Z,15.60
2022-11-24T03:11:44.951Z,16.90
2022-11-24T03:14:12.537Z,14.07
2022-11-24T03:16:40.093Z,12.77
2022-11-24T03:19:09.040Z,13.47
2022-11-24T03:21:37.360Z,14.13
2022-11-24T03:24:05.524Z,13.40
2022-11-24T03:26:35.179Z,13.33
2022-11-24T03:29:03.068Z,14.40
2022-11-24T03:31:30.803Z,12.77
2022-11-24T03:33:58.399Z,15.00
2022-11-24T03:36:27.506Z,13.67
2022-11-24T03:38:55.183Z,12.70
2022-11-24T03:41:23.499Z,15.13
2022-11-24T03:43:51.069Z,12.63
2022-11-24T03:46:18.888Z,13.27
2022-11-24T03:48:46.496Z,14.27
2022-11-24T03:51:14.063Z,14.00
2022-11-24T03:53:43.111Z,12.50
2022-11-24T03:56:10.717Z,11.10
2022-11-24T03:58:38.310Z,10.07
2022-11-24T04:01:05.956Z,9.43
2022-11-24T04:03:33.531Z,13.77
2022-11-24T04:06:01.098Z,10.00
2022-11-24T04:08:28.727Z,14.20
2022-11-24T04:10:57.648Z,8.77
2022-11-24T04:13:25.500Z,14.73
2022-11-24T04:15:53.284Z,10.17
2022-11-24T04:18:21.327Z,12.57
2022-11-24T04:20:50.738Z,12.33
2022-11-24T04:23:18.913Z,12.47
2022-11-24T04:25:46.467Z,11.47
2022-11-24T04:28:15.956Z,13.97
2022-11-24T04:30:44.719Z,14.47
2022-11-24T04:33:13.523Z,13.93
2022-11-24T04:35:41.223Z,9.63
2022-11-24T04:38:08.821Z,10.07
2022-11-24T04:40:36.412Z,11.37
2022-11-24T04:43:03.973Z,10.97
2022-11-24T04:45:32.896Z,13.60
2022-11-24T04:48:01.716Z,15.87
2022-11-24T04:50:29.299Z,8.50
2022-11-24T04:52:56.922Z,11.07
2022-11-24T04:55:24.526Z,10.43
2022-11-24T04:57:52.112Z,11.07
2022-11-24T05:00:20.279Z,12.17
2022-11-24T05:02:49.214Z,10.97
2022-11-24T05:05:16.954Z,13.30
2022-11-24T05:07:44.622Z,12.97
2022-11-24T05:10:29.975Z,11.80
2022-11-24T05:12:59.476Z,15.87
2022-11-24T05:15:27.223Z,13.97
2022-11-24T05:17:56.986Z,9.40
2022-11-24T05:20:24.838Z,12.80
2022-11-24T05:22:52.517Z,13.40
2022-11-24T05:25:20.285Z,14.43
2022-11-24T05:27:47.921Z,14.93
2022-11-24T05:30:15.958Z,13.60
2022-11-24T05:32:43.599Z,18.17
2022-11-24T05:35:13.162Z,13.23
2022-11-24T05:37:40.794Z,22.67
2022-11-24T05:40:09.835Z,13.87
2022-11-24T05:42:47.231Z,10.47
2022-11-24T05:45:17.488Z,14.47
2022-11-24T05:47:45.445Z,16.87
2022-11-24T05:50:18.057Z,12.97
2022-11-24T05:52:46.028Z,14.80
2022-11-24T05:55:14.927Z,10.57
2022-11-24T05:57:42.632Z,15.17
2022-11-24T06:00:11.898Z,12.47
2022-11-24T06:02:39.608Z,13.40
2022-11-24T06:05:07.854Z,17.23
2022-11-24T06:07:36.987Z,11.60
2022-11-24T06:10:05.506Z,14.03
2022-11-24T06:12:33.095Z,8.67
2022-11-24T06:15:00.662Z,14.73
2022-11-24T06:17:28.413Z,16.27
2022-11-24T06:19:55.981Z,15.17
2022-11-24T06:22:23.612Z,12.03
2022-11-24T06:24:52.629Z,15.90
2022-11-24T06:27:20.190Z,12.20
2022-11-24T06:29:47.822Z,15.65
2022-11-24T06:32:15.477Z,13.23
2022-11-24T06:34:43.250Z,12.87
2022-11-24T06:37:12.018Z,16.75
2022-11-24T06:39:39.637Z,18.33
2022-11-24T06:42:08.675Z,16.77
2022-11-24T06:44:36.532Z,11.73
2022-11-24T06:47:04.311Z,10.97
2022-11-24T06:49:31.907Z,13.07
2022-11-24T06:51:59.475Z,18.67
2022-11-24T06:54:27.048Z,13.03
2022-11-24T06:56:58.275Z,12.40
2022-11-24T06:59:27.696Z,16.53
2022-11-24T07:01:59.303Z,10.60
2022-11-24T07:04:26.913Z,9.37
2022-11-24T07:06:54.503Z,11.03
2022-11-24T07:09:22.102Z,12.17
2022-11-24T07:11:49.719Z,14.93
2022-11-24T07:14:17.476Z,9.97
2022-11-24T07:16:46.468Z,12.47
2022-11-24T07:19:14.111Z,12.07
2022-11-24T07:21:41.698Z,11.70
2022-11-24T07:24:09.510Z,15.13
2022-11-24T07:26:46.601Z,10.80
2022-11-24T07:29:14.248Z,9.43
2022-11-24T07:31:42.434Z,9.33
2022-11-24T07:34:11.586Z,10.43
2022-11-24T07:36:39.584Z,9.67
2022-11-24T07:39:07.470Z,7.43
2022-11-24T07:41:35.128Z,5.93
2022-11-24T07:44:02.825Z,12.23
2022-11-24T07:46:30.441Z,9.37
2022-11-24T07:48:58.060Z,10.00
2022-11-24T07:51:27.142Z,10.55
2022-11-24T07:53:54.755Z,10.35
2022-11-24T07:56:22.621Z,6.00
2022-11-24T07:58:53.264Z,9.13
2022-11-24T08:01:21.215Z,7.67
2022-11-24T08:03:49.295Z,11.43
2022-11-24T08:06:28.516Z,7.03
2022-11-24T08:08:58.225Z,8.80
2022-11-24T08:11:26.159Z,9.30
2022-11-24T08:13:53.763Z,10.57
2022-11-24T08:16:21.543Z,10.48
2022-11-24T08:18:53.575Z,6.63
2022-11-24T08:21:23.034Z,4.97
2022-11-24T08:23:50.690Z,8.73
2022-11-24T08:26:19.661Z,8.43
2022-11-24T08:28:48.527Z,8.43
2022-11-24T08:31:18.466Z,7.33
2022-11-24T08:33:46.224Z,6.53
2022-11-24T08:36:15.480Z,5.13
2022-11-24T08:38:44.583Z,4.93
2022-11-24T08:41:13.838Z,7.07
2022-11-24T08:43:43.389Z,6.67
2022-11-24T08:46:12.939Z,8.90
2022-11-24T08:48:41.431Z,7.63
2022-11-24T08:51:11.904Z,4.93
2022-11-24T08:53:39.749Z,5.50
2022-11-24T08:56:08.567Z,10.03
2022-11-24T08:58:36.858Z,7.83
2022-11-24T09:01:07.557Z,8.40
2022-11-24T09:03:35.419Z,5.27
2022-11-24T09:06:03.152Z,4.20
2022-11-24T09:08:31.059Z,4.33
2022-11-24T09:11:01.144Z,4.63
2022-11-24T09:13:28.776Z,5.83
2022-11-24T09:15:56.338Z,7.53
2022-11-24T09:18:30.453Z,5.60
2022-11-24T09:21:07.260Z,6.50
2022-11-24T09:23:34.916Z,4.87
2022-11-24T09:26:05.711Z,5.93
2022-11-24T09:28:33.279Z,3.57
2022-11-24T09:31:04.231Z,5.63
2022-11-24T09:33:33.905Z,5.40
2022-11-24T09:36:01.652Z,3.93
2022-11-24T09:38:29.514Z,4.87
2022-11-24T09:40:57.245Z,3.87
2022-11-24T09:43:32.013Z,4.10
2022-11-24T09:46:06.830Z,5.37
2022-11-24T09:48:39.115Z,4.50
2022-11-24T09:51:07.032Z,4.77
2022-11-24T09:53:38.098Z,6.43
2022-11-24T09:56:13.709Z,4.87
2022-11-24T09:58:44.327Z,3.50
2022-11-24T10:01:16.993Z,8.33
2022-11-24T10:03:47.489Z,5.63
2022-11-24T10:06:24.196Z,6.57
2022-11-24T10:09:35.831Z,7.63
2022-11-24T10:12:32.422Z,4.67
2022-11-24T10:15:06.453Z,6.03
2022-11-24T10:17:45.426Z,6.00
2022-11-24T10:20:20.236Z,4.77
2022-11-24T10:22:51.239Z,6.73
2022-11-24T10:25:22.549Z,10.43
2022-11-24T10:27:53.233Z,4.87
2022-11-24T10:30:23.804Z,4.30
2022-11-24T10:32:55.495Z,6.60
2022-11-24T10:35:30.198Z,9.80
2022-11-24T10:38:04.174Z,4.37
2022-11-24T10:43:27.010Z,4.57
2022-11-24T10:45:55.800Z,3.03
2022-11-24T10:48:26.391Z,4.20
2022-11-24T10:51:02.244Z,4.70
2022-11-24T10:53:31.376Z,5.60
2022-11-24T10:56:01.701Z,4.93
2022-11-24T10:58:36.033Z,4.47
2022-11-24T11:01:21.113Z,4.87
2022-11-24T11:03:50.543Z,4.43
2022-11-24T11:06:24.823Z,5.93
2022-11-24T11:09:17.454Z,4.20
2022-11-24T11:11:47.137Z,2.17
2022-11-24T11:14:14.813Z,2.67
2022-11-24T11:16:43.795Z,2.87
2022-11-24T11:19:48.404Z,3.40
2022-11-24T11:22:25.006Z,4.17
2022-11-24T11:25:05.702Z,2.33
2022-11-24T11:27:33.309Z,2.00
2022-11-24T11:36:10.670Z,2.93
2022-11-24T11:38:40.814Z,5.33
2022-11-24T11:41:12.669Z,2.40
2022-11-24T11:43:41.950Z,3.15
2022-11-24T11:46:13.098Z,1.87
2022-11-24T11:48:44.867Z,1.57
2022-11-24T11:51:26.984Z,1.93
2022-11-24T11:54:03.311Z,2.75
2022-11-24T11:56:32.419Z,2.50
2022-11-24T11:59:24.020Z,1.10
2022-11-24T12:02:20.325Z,1.93
2022-11-24T12:04:53.577Z,2.37
2022-11-24T12:07:40.314Z,4.23
2022-11-24T12:10:17.732Z,1.37
2022-11-24T12:13:05.275Z,4.47
2022-11-24T12:15:37.696Z,3.77
2022-11-24T12:18:27.074Z,3.53
2022-11-24T12:21:07.821Z,2.07
2022-11-24T12:23:44.208Z,2.10
2022-11-24T12:26:20.077Z,1.40
2022-11-24T12:28:53.380Z,2.53
2022-11-24T12:31:28.716Z,2.63
2022-11-24T12:34:20.522Z,2.37
2022-11-24T12:36:58.484Z,1.33
2022-11-24T12:39:31.768Z,2.90
2022-11-24T12:42:09.345Z,1.50
2022-11-24T12:44:50.488Z,1.73
2022-11-24T12:47:20.637Z,1.90
2022-11-24T12:49:57.132Z,4.10
2022-11-24T12:52:27.292Z,2.60
2022-11-24T12:54:56.649Z,1.83
2022-11-24T12:57:30.430Z,2.73
2022-11-24T13:00:03.162Z,2.40
2022-11-24T13:02:39.545Z,1.60
2022-11-24T13:05:17.734Z,4.00
2022-11-24T13:07:47.720Z,2.33
2022-11-24T13:13:19.146Z,2.27
2022-11-24T13:16:35.163Z,3.78
2022-11-24T13:19:01.268Z,4.80
2022-11-24T13:21:33.773Z,3.03
2022-11-24T13:24:03.410Z,2.03
2022-11-24T13:26:33.591Z,3.03
2022-11-24T13:29:23.912Z,3.30
2022-11-24T13:31:52.777Z,3.63
2022-11-24T13:35:02.642Z,3.93
2022-11-24T13:37:51.423Z,2.47
2022-11-24T13:40:54.317Z,2.33
2022-11-24T13:43:30.085Z,3.17
2022-11-24T13:45:59.047Z,3.93
2022-11-24T13:49:02.488Z,1.67
2022-11-24T13:51:30.093Z,1.97
2022-11-24T13:54:00.721Z,1.90
2022-11-24T13:56:30.649Z,2.17
2022-11-24T13:59:00.227Z,2.40
2022-11-24T14:01:30.005Z,4.63
2022-11-24T14:04:33.583Z,2.13
2022-11-24T14:07:07.793Z,5.93
2022-11-24T14:09:38.604Z,2.70
2022-11-24T14:12:13.236Z,4.60
2022-11-24T14:14:41.200Z,3.37
2022-11-24T14:17:16.684Z,4.73
2022-11-24T14:19:45.690Z,2.90
2022-11-24T14:22:17.503Z,2.13
2022-11-24T14:24:46.746Z,4.13
2022-11-24T14:27:18.936Z,2.30
2022-11-24T14:29:56.793Z,6.80
2022-11-24T14:32:25.872Z,3.67
2022-11-24T14:34:54.427Z,2.97
2022-11-24T14:37:22.821Z,5.47
2022-11-24T14:39:50.543Z,4.80
2022-11-24T14:42:20.527Z,4.10
2022-11-24T14:44:52.697Z,3.40
2022-11-24T14:47:30.895Z,5.07
2022-11-24T14:50:08.281Z,2.13
2022-11-24T14:52:36.322Z,2.37
2022-11-24T14:55:21.999Z,4.10
2022-11-24T14:57:50.631Z,2.43
2022-11-24T15:00:21.377Z,3.00
2022-11-24T15:02:52.085Z,4.57
2022-11-24T15:05:20.484Z,1.93
2022-11-24T15:07:49.137Z,5.27
2022-11-24T15:10:23.118Z,4.23
2022-11-24T15:12:54.302Z,4.87
2022-11-24T15:15:24.436Z,5.53
2022-11-24T15:17:54.760Z,3.17
2022-11-24T15:20:27.011Z,2.50
2022-11-24T15:23:13.562Z,3.57
2022-11-24T15:25:44.852Z,5.23
2022-11-24T15:28:12.908Z,4.15
2022-11-24T15:30:40.737Z,4.37
2022-11-24T15:33:15.600Z,2.97
2022-11-24T15:35:43.572Z,3.10
2022-11-24T15:38:11.276Z,4.77
2022-11-24T15:40:42.383Z,7.13
2022-11-24T15:43:27.415Z,4.27
2022-11-24T15:45:55.020Z,2.23
2022-11-24T15:48:24.030Z,2.37
2022-11-24T15:50:51.935Z,5.87
2022-11-24T15:53:21.294Z,2.63
2022-11-24T15:55:49.369Z,5.57
2022-11-24T15:58:17.266Z,5.30
2022-11-24T16:00:45.615Z,8.33
2022-11-24T16:03:45.108Z,2.77
2022-11-24T16:06:02.329Z,2.80
2022-11-24T16:08:29.914Z,4.13
2022-11-24T16:10:57.456Z,5.67
2022-11-24T16:13:25.033Z,2.70
2022-11-24T16:15:52.681Z,7.40
2022-11-24T16:18:20.291Z,5.23
2022-11-24T16:20:47.847Z,2.60
2022-11-24T16:23:16.801Z,3.20
2022-11-24T16:25:44.430Z,2.93
2022-11-24T16:28:12.197Z,3.87
2022-11-24T16:30:39.799Z,5.13
2022-11-24T16:33:07.605Z,5.43
2022-11-24T16:35:35.238Z,6.10
2022-11-24T16:38:02.835Z,5.30
2022-11-24T16:40:31.970Z,6.27
2022-11-24T16:42:59.648Z,11.77
2022-11-24T16:45:27.340Z,8.97
2022-11-24T16:47:55.211Z,8.07
2022-11-24T16:50:22.773Z,6.23
2022-11-24T16:52:50.333Z,9.67
2022-11-24T16:55:17.959Z,8.10
2022-11-24T16:57:46.998Z,7.37
2022-11-24T17:00:15.862Z,8.23
2022-11-24T17:02:43.624Z,7.60
2022-11-24T17:05:11.293Z,10.40
2022-11-24T17:07:38.943Z,9.87
2022-11-24T17:10:07.996Z,10.53
2022-11-24T17:12:37.079Z,10.30
2022-11-24T17:15:31.773Z,12.23
2022-11-24T17:18:22.967Z,13.63
2022-11-24T17:20:43.109Z,9.73
2022-11-24T17:23:10.691Z,5.73
2022-11-24T17:25:38.238Z,4.30
2022-11-24T17:28:06.042Z,6.07
2022-11-24T17:30:34.979Z,8.30
2022-11-24T17:33:02.548Z,6.93
2022-11-24T17:35:30.143Z,6.70
2022-11-24T17:37:58.243Z,8.53
2022-11-24T17:40:28.735Z,7.60
2022-11-24T17:42:58.867Z,7.50
2022-11-24T17:45:26.749Z,8.30
2022-11-24T17:47:56.071Z,8.40
2022-11-24T17:50:26.384Z,12.77
2022-11-24T17:52:54.354Z,15.13
2022-11-24T17:55:22.455Z,15.93
2022-11-24T17:57:50.409Z,9.70
2022-11-24T18:00:18.981Z,11.37
2022-11-24T18:02:46.594Z,8.27
2022-11-24T18:05:15.859Z,6.50
2022-11-24T18:07:43.467Z,7.53
2022-11-24T18:10:12.757Z,5.30
2022-11-24T18:12:40.407Z,6.17
2022-11-24T18:15:08.893Z,5.80
2022-11-24T18:17:36.472Z,4.83
2022-11-24T18:20:04.198Z,5.73
2022-11-24T18:22:57.977Z,6.00
2022-11-24T18:25:20.663Z,6.87
2022-11-24T18:27:48.300Z,6.70
2022-11-24T18:30:16.383Z,9.97
2022-11-24T18:32:43.942Z,7.60
2022-11-24T18:35:15.234Z,8.17
2022-11-24T18:37:44.480Z,8.17
2022-11-24T18:40:12.526Z,9.27
2022-11-24T18:42:40.147Z,7.53
2022-11-24T18:45:09.405Z,11.53
2022-11-24T18:47:36.996Z,41.13
2022-11-24T18:50:05.198Z,11.20
2022-11-24T18:52:32.821Z,8.83
2022-11-24T18:55:03.881Z,10.90
2022-11-24T18:57:31.868Z,6.00
2022-11-24T18:59:59.484Z,7.70
2022-11-24T19:02:27.207Z,6.47
2022-11-24T19:04:55.007Z,6.73
2022-11-24T19:07:22.637Z,6.83
2022-11-24T19:09:50.276Z,8.67
2022-11-24T19:12:19.236Z,7.33
2022-11-24T19:14:46.855Z,7.57
2022-11-24T19:17:14.483Z,9.00
2022-11-24T19:19:42.150Z,8.30
2022-11-24T19:22:16.257Z,19.77
2022-11-24T19:24:45.091Z,9.93
2022-11-24T19:27:12.731Z,12.13
2022-11-24T19:29:43.326Z,10.93
2022-11-24T19:32:11.517Z,15.20
2022-11-24T19:34:39.431Z,10.27
2022-11-24T19:37:10.178Z,10.47
2022-11-24T19:39:40.515Z,7.97
2022-11-24T19:42:08.078Z,7.27
2022-11-24T19:44:36.088Z,9.43
2022-11-24T19:47:05.256Z,9.53
2022-11-24T19:49:33.547Z,7.83
2022-11-24T19:52:01.689Z,7.53
2022-11-24T19:54:29.249Z,8.23
2022-11-24T19:56:56.811Z,15.87
2022-11-24T19:59:26.447Z,20.50
2022-11-24T20:01:54.861Z,18.77
2022-11-24T20:04:24.060Z,20.13
2022-11-24T20:06:52.279Z,26.93
2022-11-24T20:09:20.014Z,22.77
2022-11-24T20:11:48.583Z,15.87
2022-11-24T20:14:17.516Z,14.10
2022-11-24T20:16:46.510Z,10.30
2022-11-24T20:19:16.145Z,10.70
2022-11-24T20:21:47.580Z,10.30
2022-11-24T20:24:16.812Z,7.40
2022-11-24T20:26:45.894Z,7.40
2022-11-24T20:29:14.144Z,6.90
2022-11-24T20:31:43.552Z,6.10
2022-11-24T20:34:11.747Z,9.33
2022-11-24T20:36:40.755Z,7.30
2022-11-24T20:39:12.758Z,9.63
2022-11-24T20:41:41.226Z,15.37
2022-11-24T20:44:13.064Z,11.93
2022-11-24T20:46:41.839Z,8.70
2022-11-24T20:49:11.791Z,9.00
2022-11-24T20:51:43.646Z,7.73
2022-11-24T20:54:13.963Z,10.80
2022-11-24T20:56:42.743Z,7.60
2022-11-24T20:59:13.239Z,5.63
2022-11-24T21:01:42.504Z,6.13
2022-11-24T21:04:11.671Z,6.37
2022-11-24T21:06:39.487Z,6.33
2022-11-24T21:09:08.285Z,8.70
2022-11-24T21:11:37.931Z,15.83
2022-11-24T21:14:06.078Z,19.50
2022-11-24T21:16:35.340Z,7.57
2022-11-24T21:19:04.953Z,6.50
2022-11-24T21:21:35.082Z,6.77
2022-11-24T21:24:03.186Z,6.53
2022-11-24T21:26:31.076Z,6.30
2022-11-24T21:29:00.019Z,6.67
2022-11-24T21:31:27.626Z,7.37
2022-11-24T21:33:55.334Z,7.47
2022-11-24T21:36:25.210Z,8.77
2022-11-24T21:38:54.164Z,7.57
2022-11-24T21:41:22.378Z,7.93
2022-11-24T21:43:50.850Z,8.07
2022-11-24T21:46:19.893Z,6.47
2022-11-24T21:48:47.488Z,6.40
2022-11-24T21:51:17.064Z,12.57
2022-11-24T21:53:45.127Z,9.67
2022-11-24T21:56:14.095Z,7.73
2022-11-24T21:58:45.831Z,7.87
2022-11-24T22:01:13.884Z,7.07
2022-11-24T22:03:43.013Z,6.47
2022-11-24T22:06:10.825Z,9.87
2022-11-24T22:08:38.712Z,5.83
2022-11-24T22:11:07.874Z,6.13
2022-11-24T22:13:35.606Z,10.93
2022-11-24T22:16:04.286Z,7.27
2022-11-24T22:18:33.914Z,6.67
2022-11-24T22:21:03.776Z,6.30
2022-11-24T22:23:31.480Z,8.90
2022-11-24T22:26:03.712Z,9.23
2022-11-24T22:28:32.230Z,6.77
2022-11-24T22:31:00.052Z,6.27
2022-11-24T22:33:27.582Z,9.90
2022-11-24T22:35:58.327Z,9.53
2022-11-24T22:38:27.939Z,6.93
2022-11-24T22:40:55.552Z,10.90
2022-11-24T22:43:23.298Z,7.83
2022-11-24T22:45:50.974Z,6.83
2022-11-24T22:48:19.168Z,10.30
2022-11-24T22:50:46.738Z,7.67
2022-11-24T22:53:14.312Z,7.10
2022-11-24T22:55:43.317Z,10.33
2022-11-24T22:58:11.039Z,11.40
2022-11-24T23:00:38.652Z,8.47
2022-11-24T23:03:06.262Z,7.17
2022-11-24T23:05:33.905Z,7.87
2022-11-24T23:08:01.461Z,6.73
2022-11-24T23:10:29.015Z,7.07
2022-11-24T23:12:57.925Z,8.03
2022-11-24T23:15:25.482Z,8.90
2022-11-24T23:17:53.105Z,7.40
2022-11-24T23:20:20.658Z,5.90
2022-11-24T23:22:48.280Z,5.93
2022-11-24T23:25:15.908Z,5.23
2022-11-24T23:27:43.462Z,6.63
2022-11-24T23:30:12.653Z,6.30
2022-11-24T23:32:40.211Z,9.57
2022-11-24T23:35:13.450Z,5.97
2022-11-24T23:38:05.974Z,6.60
2022-11-24T23:40:29.415Z,5.97
2022-11-24T23:42:56.971Z,10.90
2022-11-24T23:45:25.926Z,6.50
2022-11-24T23:47:54.572Z,6.30
2022-11-24T23:50:22.124Z,6.97
2022-11-24T23:52:49.709Z,7.30
2022-11-24T23:55:17.364Z,7.37
2022-11-24T23:57:45.234Z,5.50
